Time;durP1;ratioP1;P1;durP2;ratioP2;P2;SDS_P1;SDS_P2;PMS_P1;PMS_P2;Temp;Humidity;BMP_temperature;BMP_pressure;BME280_temperature;BME280_humidity;BME280_pressure;Samples;Min_cycle;Max_cycle;Signal;HPM_P1;HPM_P2
2021/12/17 00:00:58;;;;;;;1.57;1.40;;;9.40;99.90;;;;;;4874143;29;21155;-83
2021/12/17 00:03:43;;;;;;;2.03;1.23;;;9.10;99.90;;;;;;4872182;29;20277;-82
2021/12/17 00:06:16;;;;;;;3.03;2.23;;;9.00;99.90;;;;;;4872869;29;20277;-83
2021/12/17 00:08:45;;;;;;;3.53;1.60;;;8.90;99.90;;;;;;4871617;29;20183;-83
2021/12/17 00:11:10;;;;;;;0.97;0.97;;;8.90;99.90;;;;;;4872018;29;20200;-83
2021/12/17 00:13:38;;;;;;;1.37;1.00;;;9.00;99.90;;;;;;4872325;29;20199;-83
2021/12/17 00:16:13;;;;;;;1.57;1.43;;;9.00;99.90;;;;;;4871931;29;20189;-81
2021/12/17 00:18:53;;;;;;;2.60;2.03;;;9.00;99.90;;;;;;4871906;29;20677;-83
2021/12/17 00:53:43;;;;;;;1.90;1.33;;;8.80;99.90;;;;;;4873552;29;20198;-83
2021/12/17 00:56:08;;;;;;;1.10;0.83;;;8.80;99.90;;;;;;4871845;29;20188;-83
2021/12/17 00:58:34;;;;;;;2.23;1.13;;;8.90;99.90;;;;;;4871243;29;20195;-83
2021/12/17 01:01:00;;;;;;;1.63;1.53;;;8.80;99.90;;;;;;4873331;29;20217;-83
2021/12/17 01:03:26;;;;;;;1.17;1.07;;;8.80;99.90;;;;;;4870426;29;20284;-83
2021/12/17 01:05:51;;;;;;;0.77;0.77;;;8.70;99.90;;;;;;4870912;29;20274;-83
2021/12/17 01:08:17;;;;;;;1.10;0.80;;;8.80;99.90;;;;;;4870935;29;20540;-82
2021/12/17 01:10:47;;;;;;;1.60;1.30;;;8.80;99.90;;;;;;4871424;29;20280;-83
2021/12/17 01:13:13;;;;;;;2.23;1.93;;;8.80;99.90;;;;;;4871538;29;20605;-83
2021/12/17 01:15:41;;;;;;;1.67;1.57;;;8.70;99.90;;;;;;4871248;29;20287;-83
2021/12/17 01:18:12;;;;;;;0.73;0.73;;;8.70;99.90;;;;;;4872859;29;20187;-83
2021/12/17 01:36:41;;;;;;;0.67;0.50;;;8.80;99.90;;;;;;4873141;29;20273;-83
2021/12/17 01:40:29;;;;;;;0.53;0.53;;;8.80;99.90;;;;;;4871344;29;20299;-82
2021/12/17 01:42:13;;;;;;;0.30;0.30;;;8.80;99.90;;;;;;4872813;29;20292;-83
2021/12/17 01:44:40;;;;;;;0.10;0.10;;;8.90;99.90;;;;;;4872395;29;20199;-84
2021/12/17 01:47:10;;;;;;;0.20;0.20;;;8.90;99.90;;;;;;4869899;29;20180;-82
2021/12/17 02:00:23;;;;;;;0.20;0.20;;;9.00;99.90;;;;;;4872702;29;20234;-83
2021/12/17 02:02:53;;;;;;;0.20;0.20;;;9.00;99.90;;;;;;4872270;29;20220;-82
2021/12/17 02:05:20;;;;;;;0.20;0.20;;;9.10;99.90;;;;;;4871514;29;20176;-83
2021/12/17 02:07:48;;;;;;;1.60;0.63;;;9.00;99.90;;;;;;4870355;29;20235;-83
2021/12/17 02:19:41;;;;;;;0.30;0.30;;;9.00;99.90;;;;;;4874917;29;20195;-84
2021/12/17 02:32:01;;;;;;;0.10;0.10;;;8.90;99.90;;;;;;4875369;29;20239;-82
2021/12/17 02:37:00;;;;;;;0.37;0.37;;;8.90;99.90;;;;;;4876375;29;20681;-82
2021/12/17 02:42:38;;;;;;;0.30;0.30;;;8.90;99.90;;;;;;4866010;29;20273;-81
2021/12/17 02:48:07;;;;;;;0.10;0.10;;;8.90;99.90;;;;;;4875101;29;20554;-82
2021/12/17 02:50:37;;;;;;;0.93;0.53;;;8.90;99.90;;;;;;4874215;29;20262;-83
2021/12/17 02:53:07;;;;;;;0.30;0.30;;;9.00;99.90;;;;;;4875189;29;20557;-83
2021/12/17 02:55:40;;;;;;;1.90;0.40;;;9.00;99.90;;;;;;4874881;29;20200;-83
2021/12/17 02:58:07;;;;;;;0.20;0.20;;;9.00;99.90;;;;;;4874034;29;20249;-82
2021/12/17 03:00:34;;;;;;;0.20;0.20;;;9.00;99.90;;;;;;4876134;29;20224;-82
2021/12/17 03:03:02;;;;;;;0.83;0.33;;;9.00;99.90;;;;;;4874485;29;20197;-82
2021/12/17 03:05:27;;;;;;;0.33;0.20;;;9.00;99.90;;;;;;4874008;29;20204;-83
2021/12/17 03:07:55;;;;;;;0.93;0.57;;;9.00;99.90;;;;;;4875082;29;20784;-82
2021/12/17 03:10:21;;;;;;;1.33;0.40;;;8.90;99.90;;;;;;4875542;29;20242;-83
2021/12/17 03:12:50;;;;;;;0.53;0.30;;;8.90;99.90;;;;;;4875053;29;20204;-84
2021/12/17 03:15:41;;;;;;;0.80;0.57;;;8.90;99.90;;;;;;4874113;29;20198;-83
2021/12/17 03:23:27;;;;;;;0.27;0.27;;;9.00;99.90;;;;;;4874447;29;20230;-83
2021/12/17 03:25:53;;;;;;;0.67;0.30;;;8.90;99.90;;;;;;4870706;29;20197;-83
2021/12/17 03:28:19;;;;;;;0.53;0.53;;;8.90;99.90;;;;;;4881183;29;20229;-82
2021/12/17 03:30:46;;;;;;;0.27;0.27;;;8.90;99.90;;;;;;4882417;29;20284;-82
2021/12/17 03:33:12;;;;;;;0.40;0.40;;;8.90;99.90;;;;;;4882938;29;20448;-82
2021/12/17 03:35:38;;;;;;;1.03;0.70;;;8.90;99.90;;;;;;4882985;29;20845;-83
2021/12/17 03:38:04;;;;;;;0.10;0.10;;;8.90;99.90;;;;;;4881668;29;20292;-83
2021/12/17 03:40:32;;;;;;;0.60;0.60;;;8.90;99.90;;;;;;4882364;29;20230;-82
2021/12/17 03:43:03;;;;;;;0.27;0.27;;;8.90;99.90;;;;;;4881378;29;20541;-82
2021/12/17 03:45:29;;;;;;;0.10;0.10;;;9.00;99.90;;;;;;4881889;29;20291;-82
2021/12/17 03:47:54;;;;;;;0.83;0.33;;;9.00;99.90;;;;;;4880505;29;20277;-82
2021/12/17 03:50:21;;;;;;;0.40;0.40;;;9.00;99.90;;;;;;4878619;29;20223;-83
2021/12/17 03:52:46;;;;;;;0.10;0.10;;;8.80;99.90;;;;;;4881119;29;20288;-82
2021/12/17 03:55:12;;;;;;;0.20;0.20;;;8.90;99.90;;;;;;4880072;29;20236;-81
2021/12/17 03:57:38;;;;;;;0.30;0.30;;;8.80;99.90;;;;;;4878043;29;20203;-82
2021/12/17 04:00:06;;;;;;;2.17;0.50;;;8.90;99.90;;;;;;4879084;29;20264;-83
2021/12/17 04:02:32;;;;;;;0.33;0.33;;;8.90;99.90;;;;;;4872889;29;20841;-82
2021/12/17 04:04:57;;;;;;;0.43;0.40;;;8.90;99.90;;;;;;4873423;29;20189;-83
2021/12/17 04:07:23;;;;;;;0.10;0.10;;;8.90;99.90;;;;;;4871916;29;20278;-82
2021/12/17 04:09:48;;;;;;;0.27;0.27;;;9.10;99.90;;;;;;4874250;29;20227;-83
2021/12/17 04:12:17;;;;;;;0.50;0.30;;;8.90;99.90;;;;;;4888907;29;20652;-82
2021/12/17 04:14:46;;;;;;;0.30;0.30;;;8.90;99.90;;;;;;4872849;29;20202;-83
2021/12/17 04:17:15;;;;;;;0.23;0.23;;;8.90;99.90;;;;;;4872582;29;20228;-83
2021/12/17 04:19:40;;;;;;;0.40;0.40;;;8.90;99.90;;;;;;4874353;29;20948;-82
2021/12/17 04:22:07;;;;;;;0.40;0.40;;;8.80;99.90;;;;;;4872622;29;20257;-83
2021/12/17 04:24:32;;;;;;;0.30;0.30;;;8.80;99.90;;;;;;4873363;29;20194;-82
2021/12/17 04:26:58;;;;;;;0.83;0.20;;;8.80;99.90;;;;;;4871997;29;20189;-83
2021/12/17 04:29:25;;;;;;;0.70;0.40;;;8.80;99.90;;;;;;4871844;29;20214;-83
2021/12/17 04:31:54;;;;;;;0.20;0.20;;;8.80;99.90;;;;;;4872847;29;20278;-83
2021/12/17 04:34:20;;;;;;;0.47;0.43;;;8.80;99.90;;;;;;4873343;29;20222;-82
2021/12/17 04:36:49;;;;;;;0.23;0.23;;;8.80;99.90;;;;;;4871619;29;20542;-83
2021/12/17 04:39:21;;;;;;;0.10;0.10;;;8.70;99.90;;;;;;4871431;29;20693;-83
2021/12/17 04:42:01;;;;;;;0.47;0.40;;;8.80;99.90;;;;;;4873824;29;20268;-83
2021/12/17 04:44:31;;;;;;;0.17;0.17;;;8.90;99.90;;;;;;4873385;29;20198;-83
2021/12/17 04:57:15;;;;;;;0.20;0.20;;;8.80;99.90;;;;;;4872089;29;20300;-83
2021/12/17 04:57:58;;;;;;;0.13;0.13;;;8.70;99.90;;;;;;4871707;29;20216;-83
2021/12/17 05:00:27;;;;;;;0.60;0.60;;;8.70;99.90;;;;;;4873733;29;20507;-83
2021/12/17 05:02:56;;;;;;;0.10;0.10;;;8.60;99.90;;;;;;4872006;29;20190;-82
2021/12/17 05:05:29;;;;;;;0.60;0.40;;;8.60;99.90;;;;;;4873856;29;20553;-82
2021/12/17 05:08:01;;;;;;;0.67;0.43;;;8.50;99.90;;;;;;4871736;29;20572;-82
2021/12/17 05:18:27;;;;;;;0.10;0.10;;;8.30;99.90;;;;;;4874967;29;20246;-82
2021/12/17 05:21:00;;;;;;;0.20;0.20;;;8.30;99.90;;;;;;4871756;29;20852;-84
2021/12/17 05:23:33;;;;;;;0.53;0.53;;;8.30;99.90;;;;;;4870857;29;20288;-83
2021/12/17 05:26:04;;;;;;;0.10;0.10;;;8.30;99.90;;;;;;4866736;29;20184;-84
2021/12/17 05:28:29;;;;;;;0.83;0.83;;;8.30;99.90;;;;;;4867950;29;20197;-83
2021/12/17 05:30:58;;;;;;;0.20;0.20;;;8.40;99.90;;;;;;4870606;29;20281;-83
2021/12/17 05:33:25;;;;;;;0.10;0.10;;;8.40;99.90;;;;;;4868098;29;20192;-83
2021/12/17 05:35:52;;;;;;;0.20;0.20;;;8.40;99.90;;;;;;4870611;29;20230;-83
2021/12/17 05:38:20;;;;;;;0.20;0.20;;;8.40;99.90;;;;;;4869279;29;20222;-84
2021/12/17 05:40:47;;;;;;;0.37;0.37;;;8.40;99.90;;;;;;4871051;29;20217;-83
2021/12/17 05:43:15;;;;;;;0.23;0.20;;;8.40;99.90;;;;;;4869736;29;20230;-83
2021/12/17 05:45:50;;;;;;;0.20;0.20;;;8.50;99.90;;;;;;4869756;29;20200;-83
2021/12/17 05:48:18;;;;;;;0.57;0.37;;;8.50;99.90;;;;;;4870689;29;20235;-84
2021/12/17 05:50:46;;;;;;;0.10;0.10;;;8.30;99.90;;;;;;4873648;29;20219;-83
2021/12/17 05:53:12;;;;;;;0.60;0.60;;;8.20;99.90;;;;;;4874603;29;20676;-84
2021/12/17 05:55:38;;;;;;;0.77;0.40;;;8.30;99.90;;;;;;4874676;29;20201;-83
2021/12/17 05:58:05;;;;;;;0.33;0.33;;;8.30;99.90;;;;;;4870812;29;20268;-84
2021/12/17 06:00:32;;;;;;;0.37;0.37;;;8.40;99.90;;;;;;4873993;29;20231;-84
2021/12/17 06:02:59;;;;;;;0.50;0.50;;;8.50;99.90;;;;;;4873870;29;20193;-83
2021/12/17 06:05:26;;;;;;;0.23;0.23;;;8.40;99.90;;;;;;4874007;29;20298;-84
2021/12/17 06:07:53;;;;;;;0.30;0.30;;;8.40;99.90;;;;;;4872549;29;20654;-83
2021/12/17 06:10:18;;;;;;;0.57;0.57;;;8.30;99.90;;;;;;4872962;29;20231;-81
2021/12/17 06:12:44;;;;;;;0.10;0.10;;;8.40;99.90;;;;;;4875775;29;20407;-81
2021/12/17 06:15:13;;;;;;;0.33;0.33;;;8.40;99.90;;;;;;4872626;29;20250;-81
2021/12/17 06:17:39;;;;;;;0.63;0.63;;;8.40;99.90;;;;;;4872624;29;20208;-81
2021/12/17 06:20:06;;;;;;;0.27;0.27;;;8.30;99.90;;;;;;4873783;29;20224;-81
2021/12/17 06:22:32;;;;;;;0.53;0.53;;;8.40;99.90;;;;;;4874454;29;20268;-82
2021/12/17 06:24:58;;;;;;;0.50;0.50;;;8.40;99.90;;;;;;4873288;29;20195;-83
2021/12/17 06:27:24;;;;;;;0.10;0.10;;;8.30;99.90;;;;;;4869670;29;21130;-83
2021/12/17 06:29:50;;;;;;;0.30;0.30;;;8.40;99.90;;;;;;4870871;29;20215;-83
2021/12/17 06:32:16;;;;;;;0.20;0.20;;;8.40;99.90;;;;;;4873918;29;20192;-83
2021/12/17 06:34:42;;;;;;;1.20;0.40;;;8.30;99.90;;;;;;4872131;29;20202;-83
2021/12/17 06:37:08;;;;;;;0.77;0.77;;;8.30;99.90;;;;;;4872993;29;20570;-83
2021/12/17 06:39:34;;;;;;;0.70;0.70;;;8.30;99.90;;;;;;4873520;29;20304;-83
2021/12/17 06:42:00;;;;;;;0.37;0.37;;;8.30;99.90;;;;;;4872930;29;20629;-83
2021/12/17 06:44:26;;;;;;;0.30;0.30;;;8.20;99.90;;;;;;4873043;29;20201;-83
2021/12/17 06:54:40;;;;;;;0.10;0.10;;;8.30;99.90;;;;;;4849003;29;20224;-84
2021/12/17 06:58:40;;;;;;;1.83;0.70;;;8.10;99.90;;;;;;4874701;29;20191;-85
2021/12/17 07:01:19;;;;;;;0.90;0.90;;;8.10;99.90;;;;;;4871437;29;22851;-84
2021/12/17 07:06:52;;;;;;;0.30;0.30;;;8.00;99.90;;;;;;4872367;29;20571;-82
2021/12/17 07:22:46;;;;;;;0.77;0.53;;;8.00;99.90;;;;;;4873824;29;20258;-82
2021/12/17 07:28:54;;;;;;;0.50;0.50;;;7.90;99.90;;;;;;4872793;29;20255;-82
2021/12/17 07:33:39;;;;;;;2.30;2.10;;;7.80;99.90;;;;;;4873534;29;20233;-82
2021/12/17 07:36:11;;;;;;;1.13;0.60;;;7.70;99.90;;;;;;4870633;29;20198;-82
2021/12/17 07:38:39;;;;;;;0.23;0.23;;;7.70;99.90;;;;;;4870396;29;20274;-83
2021/12/17 07:41:06;;;;;;;0.97;0.50;;;7.70;99.90;;;;;;4872406;29;20213;-83
2021/12/17 07:43:37;;;;;;;0.53;0.53;;;7.70;99.90;;;;;;4871549;29;20199;-82
2021/12/17 07:46:11;;;;;;;0.17;0.17;;;7.70;99.90;;;;;;4870430;29;20192;-82
2021/12/17 07:48:37;;;;;;;0.60;0.60;;;7.80;99.90;;;;;;4862035;29;20188;-84
2021/12/17 07:51:10;;;;;;;0.50;0.30;;;7.90;99.90;;;;;;4871400;29;20200;-84
2021/12/17 07:53:36;;;;;;;0.30;0.30;;;7.90;99.90;;;;;;4873092;29;20252;-83
2021/12/17 07:56:07;;;;;;;0.27;0.27;;;7.90;99.90;;;;;;4874126;29;20196;-81
2021/12/17 07:58:33;;;;;;;0.30;0.30;;;8.10;99.90;;;;;;4871459;29;20284;-82
2021/12/17 08:00:59;;;;;;;0.40;0.40;;;8.00;99.90;;;;;;4871634;29;20310;-83
2021/12/17 08:03:25;;;;;;;0.73;0.67;;;8.10;99.90;;;;;;4870320;29;20676;-81
2021/12/17 08:05:52;;;;;;;0.27;0.10;;;8.20;99.90;;;;;;4871601;29;20310;-81
2021/12/17 08:08:18;;;;;;;1.33;0.40;;;8.20;99.90;;;;;;4871069;29;20196;-81
2021/12/17 08:10:44;;;;;;;0.80;0.43;;;8.20;99.90;;;;;;4875028;29;20231;-88
2021/12/17 08:13:17;;;;;;;0.20;0.20;;;8.30;99.90;;;;;;4876327;29;20251;-81
2021/12/17 08:15:51;;;;;;;1.23;0.57;;;8.30;99.90;;;;;;4875155;29;20673;-81
2021/12/17 08:18:32;;;;;;;0.50;0.50;;;8.40;99.90;;;;;;4872969;29;20202;-81
2021/12/17 08:26:40;;;;;;;1.13;0.50;;;8.80;99.90;;;;;;4877329;29;20202;-81
2021/12/17 08:29:27;;;;;;;0.50;0.50;;;8.60;99.90;;;;;;4875852;29;20296;-80
2021/12/17 08:31:54;;;;;;;0.70;0.70;;;8.60;99.90;;;;;;4871066;29;20215;-83
2021/12/17 08:34:20;;;;;;;0.83;0.77;;;8.70;99.90;;;;;;4871786;29;20188;-84
2021/12/17 08:36:46;;;;;;;0.40;0.40;;;8.70;99.90;;;;;;4871385;29;20268;-83
2021/12/17 08:39:12;;;;;;;0.60;0.50;;;8.50;99.90;;;;;;4871454;29;20228;-84
2021/12/17 08:41:40;;;;;;;0.50;0.40;;;8.60;99.90;;;;;;4886732;29;20223;-84
2021/12/17 08:44:07;;;;;;;1.17;0.30;;;8.50;99.90;;;;;;4873157;29;20267;-83
2021/12/17 08:46:33;;;;;;;0.70;0.67;;;8.50;99.90;;;;;;4885798;29;20969;-83
2021/12/17 08:48:59;;;;;;;0.47;0.47;;;8.40;99.90;;;;;;4863445;29;20257;-84
2021/12/17 08:51:24;;;;;;;0.33;0.33;;;8.40;99.90;;;;;;4871232;29;20223;-83
2021/12/17 08:53:50;;;;;;;0.47;0.27;;;8.40;99.90;;;;;;4871794;29;20274;-83
2021/12/17 08:56:19;;;;;;;0.87;0.73;;;8.20;99.90;;;;;;4871472;29;20196;-83
2021/12/17 08:58:47;;;;;;;0.60;0.60;;;8.30;99.90;;;;;;4869215;29;20226;-87
2021/12/17 09:01:12;;;;;;;2.37;1.10;;;8.30;99.90;;;;;;4870582;29;20232;-81
2021/12/17 09:03:38;;;;;;;0.60;0.60;;;8.30;99.90;;;;;;4872396;29;20427;-82
2021/12/17 09:06:04;;;;;;;0.27;0.27;;;8.30;99.90;;;;;;4871746;29;20198;-81
2021/12/17 09:08:29;;;;;;;0.97;0.77;;;8.60;99.90;;;;;;4871682;29;20643;-82
2021/12/17 09:10:55;;;;;;;0.43;0.43;;;8.70;99.90;;;;;;4870367;29;20207;-81
2021/12/17 09:13:26;;;;;;;0.30;0.30;;;8.70;99.90;;;;;;4870732;29;20247;-81
2021/12/17 09:15:56;;;;;;;0.10;0.10;;;8.70;99.90;;;;;;4873519;29;20207;-81
2021/12/17 09:18:23;;;;;;;1.23;0.53;;;9.00;99.90;;;;;;4871677;29;20244;-82
2021/12/17 09:20:49;;;;;;;0.20;0.20;;;9.00;99.90;;;;;;4871832;29;20219;-81
2021/12/17 09:23:15;;;;;;;0.90;0.80;;;8.90;99.90;;;;;;4872348;29;20578;-81
2021/12/17 09:25:40;;;;;;;0.50;0.50;;;8.80;99.90;;;;;;4872772;29;20197;-81
2021/12/17 09:28:08;;;;;;;0.37;0.20;;;8.90;99.90;;;;;;4871224;29;20188;-82
2021/12/17 09:30:34;;;;;;;0.33;0.20;;;9.00;99.90;;;;;;4873516;29;20281;-82
2021/12/17 09:32:59;;;;;;;0.40;0.40;;;8.90;99.90;;;;;;4872678;29;20248;-80
2021/12/17 09:35:24;;;;;;;0.83;0.53;;;8.90;99.90;;;;;;4872134;29;20200;-82
2021/12/17 09:37:51;;;;;;;0.23;0.23;;;8.90;99.90;;;;;;4869211;29;20283;-81
2021/12/17 09:40:17;;;;;;;0.30;0.30;;;8.80;99.90;;;;;;4870601;29;21204;-81
2021/12/17 09:42:44;;;;;;;0.23;0.23;;;8.80;99.90;;;;;;4870465;29;20614;-81
2021/12/17 09:45:12;;;;;;;0.20;0.20;;;8.80;99.90;;;;;;4871098;29;20190;-81
2021/12/17 09:47:38;;;;;;;1.33;0.47;;;8.90;99.90;;;;;;4872292;29;20204;-81
2021/12/17 09:50:04;;;;;;;0.40;0.40;;;8.80;99.90;;;;;;4871529;29;20218;-82
2021/12/17 09:52:30;;;;;;;0.73;0.33;;;8.80;99.90;;;;;;4874062;29;20227;-82
2021/12/17 09:54:57;;;;;;;1.17;0.80;;;8.90;99.90;;;;;;4871029;29;20191;-82
2021/12/17 09:57:25;;;;;;;0.37;0.33;;;8.70;99.90;;;;;;4872085;29;20276;-82
2021/12/17 09:59:51;;;;;;;0.60;0.57;;;8.70;99.90;;;;;;4873057;29;20271;-82
2021/12/17 10:02:17;;;;;;;0.27;0.27;;;8.70;99.90;;;;;;4874844;29;20215;-81
2021/12/17 10:04:44;;;;;;;0.33;0.33;;;8.60;99.90;;;;;;4875705;29;20201;-81
2021/12/17 10:07:28;;;;;;;0.20;0.20;;;8.50;99.90;;;;;;4872101;29;20200;-81
2021/12/17 10:09:57;;;;;;;0.63;0.63;;;8.60;99.90;;;;;;4871828;29;20294;-89
2021/12/17 10:12:34;;;;;;;0.67;0.67;;;8.50;99.90;;;;;;4870471;29;20199;-81
2021/12/17 10:15:13;;;;;;;0.10;0.10;;;8.50;99.90;;;;;;4870691;29;20200;-82
2021/12/17 10:17:55;;;;;;;0.20;0.20;;;8.70;99.90;;;;;;4873573;29;20279;-82
2021/12/17 10:20:23;;;;;;;0.43;0.43;;;8.60;99.90;;;;;;4871401;29;20283;-82
2021/12/17 10:23:10;;;;;;;0.27;0.27;;;8.50;99.90;;;;;;4873578;29;20235;-82
2021/12/17 10:25:42;;;;;;;0.33;0.33;;;8.60;99.90;;;;;;4872619;29;20185;-82
2021/12/17 10:28:09;;;;;;;0.40;0.40;;;8.80;99.90;;;;;;4871420;29;20182;-81
2021/12/17 10:30:38;;;;;;;2.43;0.93;;;8.70;99.90;;;;;;4870293;29;20645;-81
2021/12/17 10:33:06;;;;;;;0.50;0.50;;;8.60;99.90;;;;;;4870798;29;20189;-82
2021/12/17 10:35:35;;;;;;;0.17;0.17;;;8.70;99.90;;;;;;4865814;29;20200;-81
2021/12/17 10:38:04;;;;;;;0.80;0.30;;;8.90;99.90;;;;;;4874487;29;20629;-82
2021/12/17 10:40:37;;;;;;;0.33;0.33;;;9.10;99.90;;;;;;4874082;29;20228;-82
2021/12/17 10:43:10;;;;;;;0.50;0.50;;;9.10;99.90;;;;;;4877043;29;20171;-82
2021/12/17 10:45:43;;;;;;;0.60;0.33;;;9.10;99.90;;;;;;4873907;29;20193;-81
2021/12/17 10:48:28;;;;;;;0.50;0.47;;;9.10;99.90;;;;;;4875222;29;20215;-82
2021/12/17 10:51:24;;;;;;;2.53;0.57;;;9.20;99.90;;;;;;4875311;29;20211;-82
2021/12/17 10:53:56;;;;;;;0.20;0.20;;;9.10;99.90;;;;;;4873594;29;20193;-82
2021/12/17 10:56:24;;;;;;;0.20;0.20;;;9.00;99.90;;;;;;4875698;29;20609;-82
2021/12/17 10:59:03;;;;;;;0.40;0.40;;;9.00;99.90;;;;;;4874317;29;20197;-82
2021/12/17 11:01:32;;;;;;;0.40;0.40;;;9.20;99.90;;;;;;4874998;29;20209;-82
2021/12/17 11:04:26;;;;;;;1.10;0.60;;;9.40;99.90;;;;;;4874404;29;20215;-82
2021/12/17 11:06:56;;;;;;;0.40;0.40;;;9.50;99.90;;;;;;4871274;29;20711;-82
2021/12/17 11:09:32;;;;;;;1.40;0.53;;;9.20;99.90;;;;;;4866568;29;20300;-81
2021/12/17 11:12:01;;;;;;;0.77;0.67;;;9.10;99.90;;;;;;4875295;29;20676;-81
2021/12/17 11:14:28;;;;;;;2.77;0.57;;;9.10;99.90;;;;;;4874737;29;20609;-82
2021/12/17 11:16:54;;;;;;;3.60;0.50;;;9.20;99.90;;;;;;4874018;29;20199;-82
2021/12/17 11:19:20;;;;;;;0.57;0.57;;;9.00;99.90;;;;;;4874853;29;20213;-81
2021/12/17 11:21:46;;;;;;;0.63;0.63;;;8.90;99.90;;;;;;4874445;29;20217;-82
2021/12/17 11:24:13;;;;;;;0.87;0.67;;;8.90;99.90;;;;;;4874195;29;20201;-81
2021/12/17 11:26:40;;;;;;;0.20;0.20;;;8.70;99.90;;;;;;4877476;29;20188;-81
2021/12/17 11:29:07;;;;;;;0.30;0.30;;;8.70;99.90;;;;;;4878104;29;20230;-82
2021/12/17 11:31:33;;;;;;;0.90;0.70;;;8.70;99.90;;;;;;4879416;29;20290;-82
2021/12/17 11:34:01;;;;;;;0.23;0.20;;;8.70;99.90;;;;;;4880051;29;20187;-82
2021/12/17 11:36:28;;;;;;;0.20;0.20;;;8.90;99.90;;;;;;4877684;29;20658;-82
2021/12/17 11:39:05;;;;;;;0.50;0.50;;;9.10;99.90;;;;;;4875580;29;20303;-82
2021/12/17 11:41:51;;;;;;;0.70;0.70;;;9.00;99.90;;;;;;4878676;29;20216;-81
2021/12/17 11:44:19;;;;;;;0.43;0.43;;;8.90;99.90;;;;;;4877396;29;20194;-82
2021/12/17 11:47:00;;;;;;;0.87;0.40;;;8.70;99.90;;;;;;4876059;29;20186;-81
2021/12/17 11:49:26;;;;;;;0.50;0.50;;;8.70;99.90;;;;;;4877023;29;20215;-82
2021/12/17 11:51:54;;;;;;;0.50;0.40;;;8.70;99.90;;;;;;4876359;29;20545;-81
2021/12/17 11:54:26;;;;;;;1.37;0.80;;;8.70;99.90;;;;;;4875813;29;20290;-82
2021/12/17 11:57:09;;;;;;;0.43;0.43;;;8.60;99.90;;;;;;4878186;29;20735;-82
2021/12/17 11:59:38;;;;;;;0.63;0.47;;;8.60;99.90;;;;;;4875665;29;20215;-81
2021/12/17 12:02:22;;;;;;;0.10;0.10;;;8.90;99.90;;;;;;4874693;29;20612;-82
2021/12/17 12:04:58;;;;;;;1.33;0.67;;;9.00;99.90;;;;;;4874761;29;20245;-82
2021/12/17 12:07:36;;;;;;;0.40;0.40;;;9.20;99.90;;;;;;4873405;29;20190;-82
2021/12/17 12:10:08;;;;;;;0.47;0.40;;;9.70;99.90;;;;;;4875162;29;20238;-82
2021/12/17 12:12:36;;;;;;;0.30;0.30;;;9.50;99.90;;;;;;4876105;29;20220;-81
2021/12/17 12:15:17;;;;;;;0.43;0.43;;;9.10;99.90;;;;;;4874075;29;20179;-81
2021/12/17 12:17:58;;;;;;;0.40;0.40;;;9.00;99.90;;;;;;4873687;29;21142;-81
2021/12/17 12:20:52;;;;;;;0.77;0.50;;;8.90;99.90;;;;;;4875975;29;20214;-82
2021/12/17 12:23:29;;;;;;;0.10;0.10;;;8.70;99.90;;;;;;4875781;29;20195;-81
2021/12/17 12:26:01;;;;;;;0.50;0.47;;;8.90;99.90;;;;;;4872792;29;20208;-82
2021/12/17 12:28:45;;;;;;;0.23;0.20;;;8.90;99.90;;;;;;4875684;29;20205;-82
2021/12/17 12:31:17;;;;;;;0.37;0.37;;;9.30;99.90;;;;;;4873917;29;20191;-81
2021/12/17 12:34:01;;;;;;;0.20;0.20;;;9.40;99.90;;;;;;4873406;29;20226;-82
2021/12/17 12:36:50;;;;;;;0.20;0.20;;;9.50;99.90;;;;;;4872958;29;20244;-82
2021/12/17 12:39:37;;;;;;;0.97;0.63;;;9.70;99.90;;;;;;4874600;29;20285;-82
2021/12/17 12:42:11;;;;;;;0.20;0.20;;;9.60;99.90;;;;;;4865877;29;20206;-82
2021/12/17 12:44:39;;;;;;;0.10;0.10;;;9.40;99.90;;;;;;4873317;29;20183;-82
2021/12/17 12:47:07;;;;;;;0.73;0.63;;;9.30;99.90;;;;;;4874236;29;20184;-81
2021/12/17 12:50:06;;;;;;;0.20;0.20;;;9.50;99.90;;;;;;4874154;29;20224;-81
2021/12/17 12:52:38;;;;;;;0.23;0.23;;;9.20;99.90;;;;;;4873463;29;20564;-81
2021/12/17 12:55:22;;;;;;;0.20;0.20;;;9.20;99.90;;;;;;4873710;29;20196;-81
2021/12/17 12:58:09;;;;;;;0.13;0.13;;;9.10;99.90;;;;;;4863379;29;20193;-81
2021/12/17 13:00:41;;;;;;;0.47;0.47;;;9.40;99.90;;;;;;4873273;29;20218;-80
2021/12/17 13:03:08;;;;;;;0.20;0.20;;;9.50;99.90;;;;;;4872551;29;20190;-80
2021/12/17 13:05:34;;;;;;;1.90;0.40;;;9.40;99.90;;;;;;4872534;29;20194;-80
2021/12/17 13:08:04;;;;;;;0.10;0.10;;;9.40;99.90;;;;;;4872584;29;20191;-80
2021/12/17 13:10:34;;;;;;;0.30;0.30;;;9.30;99.90;;;;;;4873545;29;20239;-81
2021/12/17 13:13:11;;;;;;;0.43;0.43;;;9.40;99.90;;;;;;4873181;29;20187;-81
2021/12/17 13:15:44;;;;;;;0.27;0.20;;;9.60;99.90;;;;;;4873271;29;20218;-81
2021/12/17 13:21:31;;;;;;;0.10;0.10;;;9.80;99.90;;;;;;4874737;29;20578;-81
2021/12/17 13:24:14;;;;;;;0.27;0.20;;;9.60;99.90;;;;;;4871872;29;20198;-81
2021/12/17 13:27:10;;;;;;;0.37;0.37;;;9.70;99.90;;;;;;4873201;29;20180;-80
2021/12/17 13:29:44;;;;;;;0.30;0.30;;;10.00;99.90;;;;;;4871623;29;20218;-81
2021/12/17 13:32:13;;;;;;;0.53;0.53;;;10.10;99.90;;;;;;4872349;29;20708;-81
2021/12/17 13:34:43;;;;;;;0.20;0.20;;;10.20;99.90;;;;;;4872533;29;20282;-80
2021/12/17 13:37:18;;;;;;;0.30;0.30;;;10.30;99.90;;;;;;4871263;29;20242;-81
2021/12/17 13:39:56;;;;;;;0.30;0.30;;;10.40;99.90;;;;;;4872565;29;20209;-80
2021/12/17 13:42:32;;;;;;;0.63;0.57;;;10.50;99.90;;;;;;4871991;29;20330;-81
2021/12/17 13:44:59;;;;;;;0.10;0.10;;;10.30;99.90;;;;;;4869589;29;20604;-81
2021/12/17 13:47:30;;;;;;;0.20;0.20;;;10.40;99.90;;;;;;4871876;29;20773;-80
2021/12/17 13:50:17;;;;;;;0.10;0.10;;;10.10;99.90;;;;;;4873040;29;20279;-80
2021/12/17 13:52:58;;;;;;;0.20;0.20;;;9.70;99.90;;;;;;4872332;29;20194;-81
2021/12/17 13:55:28;;;;;;;0.83;0.20;;;9.80;99.90;;;;;;4873526;29;20195;-81
2021/12/17 13:57:55;;;;;;;0.20;0.20;;;9.60;99.90;;;;;;4872267;29;20631;-83
2021/12/17 14:00:23;;;;;;;0.30;0.30;;;9.50;99.90;;;;;;4873435;29;21176;-80
2021/12/17 14:02:52;;;;;;;0.20;0.20;;;9.40;99.90;;;;;;4873327;29;20205;-81
2021/12/17 14:05:27;;;;;;;0.40;0.37;;;9.40;99.90;;;;;;4874425;29;20185;-81
2021/12/17 14:07:59;;;;;;;0.97;0.30;;;9.20;99.90;;;;;;4873706;29;21385;-81
2021/12/17 14:10:33;;;;;;;0.10;0.10;;;9.00;99.90;;;;;;4875420;29;20694;-80
2021/12/17 14:13:01;;;;;;;0.20;0.20;;;9.10;99.90;;;;;;4872500;29;20185;-83
2021/12/17 14:15:29;;;;;;;0.87;0.30;;;9.20;99.90;;;;;;4874995;29;20192;-81
2021/12/17 14:17:57;;;;;;;0.13;0.13;;;9.20;99.90;;;;;;4874067;29;20211;-80
2021/12/17 14:20:26;;;;;;;0.40;0.40;;;9.20;99.90;;;;;;4878326;29;20241;-81
2021/12/17 14:22:59;;;;;;;0.10;0.10;;;9.30;99.90;;;;;;4878038;29;20194;-81
2021/12/17 14:25:29;;;;;;;0.27;0.27;;;9.30;99.90;;;;;;4877354;29;20194;-81
2021/12/17 14:27:58;;;;;;;0.00;0.00;;;9.50;99.90;;;;;;4876761;29;20189;-80
2021/12/17 14:30:33;;;;;;;0.10;0.10;;;9.60;99.90;;;;;;4877204;29;20216;-81
2021/12/17 14:33:20;;;;;;;0.40;0.40;;;9.60;99.90;;;;;;4878044;29;20540;-81
2021/12/17 14:35:49;;;;;;;0.20;0.20;;;9.80;99.90;;;;;;4877120;29;20243;-81
2021/12/17 14:38:18;;;;;;;0.10;0.10;;;9.60;99.90;;;;;;4876673;29;20185;-81
2021/12/17 14:40:53;;;;;;;0.47;0.37;;;9.50;99.90;;;;;;4876466;29;20260;-81
2021/12/17 14:43:32;;;;;;;0.20;0.20;;;9.50;99.90;;;;;;4876513;29;20192;-81
2021/12/17 14:46:05;;;;;;;0.10;0.10;;;9.50;99.90;;;;;;4876329;29;20186;-81
2021/12/17 14:48:39;;;;;;;0.00;0.00;;;9.30;99.90;;;;;;4876402;29;20550;-81
2021/12/17 15:04:48;;;;;;;0.10;0.10;;;9.50;99.90;;;;;;4876842;29;20194;-82
2021/12/17 15:07:14;;;;;;;0.10;0.10;;;9.60;99.90;;;;;;4876009;29;20620;-81
2021/12/17 15:09:43;;;;;;;0.20;0.20;;;9.60;99.90;;;;;;4875007;29;20313;-81
2021/12/17 15:14:55;;;;;;;0.17;0.17;;;9.50;99.90;;;;;;4877724;29;20794;-81
2021/12/17 15:17:20;;;;;;;0.00;0.00;;;9.30;99.90;;;;;;4874879;29;20210;-81
2021/12/17 15:19:46;;;;;;;0.10;0.10;;;9.50;99.90;;;;;;4875901;29;21295;-80
2021/12/17 15:22:12;;;;;;;0.10;0.10;;;9.50;99.90;;;;;;4873650;29;20225;-81
2021/12/17 15:24:38;;;;;;;0.10;0.10;;;9.40;99.90;;;;;;4873826;29;20200;-83
2021/12/17 15:27:03;;;;;;;0.20;0.20;;;9.50;99.90;;;;;;4875362;29;20269;-83
2021/12/17 15:29:29;;;;;;;0.10;0.10;;;9.30;99.90;;;;;;4874654;29;20218;-83
2021/12/17 15:31:55;;;;;;;0.30;0.30;;;9.10;99.90;;;;;;4873551;29;20213;-82
2021/12/17 15:34:20;;;;;;;0.10;0.10;;;9.20;99.90;;;;;;4873687;29;20258;-83
2021/12/17 15:36:47;;;;;;;0.17;0.17;;;9.10;99.90;;;;;;4873015;29;20248;-83
2021/12/17 15:39:13;;;;;;;0.10;0.10;;;9.00;99.90;;;;;;4871853;29;20231;-83
2021/12/17 15:41:41;;;;;;;0.20;0.20;;;9.00;99.90;;;;;;4872814;29;20675;-83
2021/12/17 15:44:11;;;;;;;0.10;0.10;;;9.00;99.90;;;;;;4872478;29;20194;-83
2021/12/17 15:46:37;;;;;;;0.10;0.10;;;8.90;99.90;;;;;;4871033;29;20194;-83
2021/12/17 15:49:04;;;;;;;0.20;0.20;;;9.00;99.90;;;;;;4869859;29;20703;-83
2021/12/17 15:51:30;;;;;;;0.10;0.10;;;9.00;99.90;;;;;;4872802;29;20201;-83
2021/12/17 15:53:55;;;;;;;0.10;0.10;;;9.10;99.90;;;;;;4871145;29;20210;-82
2021/12/17 15:56:21;;;;;;;0.10;0.10;;;9.20;99.90;;;;;;4870839;29;20201;-83
2021/12/17 15:58:47;;;;;;;0.00;0.00;;;9.30;99.90;;;;;;4871411;29;20275;-83